sensor_id;sensor_type;location;lat;lon;timestamp;temperature;humidity
18177;DHT22;9213;50.858;3.964;2023-05-24T00:02:09;13.40;51.00
18177;DHT22;9213;50.858;3.964;2023-05-24T00:04:38;13.40;51.10
18177;DHT22;9213;50.858;3.964;2023-05-24T00:07:06;13.30;51.20
18177;DHT22;9213;50.858;3.964;2023-05-24T00:09:32;13.30;51.30
18177;DHT22;9213;50.858;3.964;2023-05-24T00:12:01;13.30;51.40
18177;DHT22;9213;50.858;3.964;2023-05-24T00:14:28;13.30;51.50
18177;DHT22;9213;50.858;3.964;2023-05-24T00:16:55;13.20;51.40
18177;DHT22;9213;50.858;3.964;2023-05-24T00:19:22;13.20;51.40
18177;DHT22;9213;50.858;3.964;2023-05-24T00:21:50;13.20;51.60
18177;DHT22;9213;50.858;3.964;2023-05-24T00:24:17;13.20;51.60
18177;DHT22;9213;50.858;3.964;2023-05-24T00:26:44;13.20;51.70
18177;DHT22;9213;50.858;3.964;2023-05-24T00:29:12;13.20;51.80
18177;DHT22;9213;50.858;3.964;2023-05-24T00:31:39;13.20;51.90
18177;DHT22;9213;50.858;3.964;2023-05-24T00:34:06;13.10;51.90
18177;DHT22;9213;50.858;3.964;2023-05-24T00:36:33;13.10;52.10
18177;DHT22;9213;50.858;3.964;2023-05-24T00:39:03;13.10;52.20
18177;DHT22;9213;50.858;3.964;2023-05-24T00:41:31;13.10;52.20
18177;DHT22;9213;50.858;3.964;2023-05-24T00:43:57;13.00;52.20
18177;DHT22;9213;50.858;3.964;2023-05-24T00:46:27;13.00;52.20
18177;DHT22;9213;50.858;3.964;2023-05-24T00:48:55;13.00;52.30
18177;DHT22;9213;50.858;3.964;2023-05-24T00:51:23;13.00;52.30
18177;DHT22;9213;50.858;3.964;2023-05-24T00:53:52;13.00;52.30
18177;DHT22;9213;50.858;3.964;2023-05-24T00:56:19;12.90;52.40
18177;DHT22;9213;50.858;3.964;2023-05-24T00:58:47;12.90;52.50
18177;DHT22;9213;50.858;3.964;2023-05-24T01:01:15;12.90;52.60
18177;DHT22;9213;50.858;3.964;2023-05-24T01:03:43;12.90;52.60
18177;DHT22;9213;50.858;3.964;2023-05-24T01:06:12;12.90;52.80
18177;DHT22;9213;50.858;3.964;2023-05-24T01:09:07;12.90;52.90
18177;DHT22;9213;50.858;3.964;2023-05-24T01:11:44;12.90;52.80
18177;DHT22;9213;50.858;3.964;2023-05-24T01:14:19;12.80;52.80
18177;DHT22;9213;50.858;3.964;2023-05-24T01:16:51;12.80;52.90
18177;DHT22;9213;50.858;3.964;2023-05-24T01:19:42;12.80;53.00
18177;DHT22;9213;50.858;3.964;2023-05-24T01:22:27;12.80;52.90
18177;DHT22;9213;50.858;3.964;2023-05-24T01:25:02;12.80;52.90
18177;DHT22;9213;50.858;3.964;2023-05-24T01:27:32;12.70;53.00
18177;DHT22;9213;50.858;3.964;2023-05-24T01:30:01;12.70;53.10
18177;DHT22;9213;50.858;3.964;2023-05-24T01:32:29;12.70;53.20
18177;DHT22;9213;50.858;3.964;2023-05-24T01:34:56;12.60;53.20
18177;DHT22;9213;50.858;3.964;2023-05-24T01:37:23;12.60;53.30
18177;DHT22;9213;50.858;3.964;2023-05-24T01:39:50;12.60;53.50
18177;DHT22;9213;50.858;3.964;2023-05-24T01:42:23;12.60;53.60
18177;DHT22;9213;50.858;3.964;2023-05-24T01:45:04;12.60;53.70
18177;DHT22;9213;50.858;3.964;2023-05-24T01:47:41;12.60;53.80
18177;DHT22;9213;50.858;3.964;2023-05-24T01:50:16;12.60;53.70
18177;DHT22;9213;50.858;3.964;2023-05-24T01:52:44;12.60;53.70
18177;DHT22;9213;50.858;3.964;2023-05-24T01:55:13;12.60;53.70
18177;DHT22;9213;50.858;3.964;2023-05-24T01:57:43;12.60;53.80
18177;DHT22;9213;50.858;3.964;2023-05-24T02:00:14;12.60;53.80
18177;DHT22;9213;50.858;3.964;2023-05-24T02:02:41;12.60;53.90
18177;DHT22;9213;50.858;3.964;2023-05-24T02:05:09;12.50;53.90
18177;DHT22;9213;50.858;3.964;2023-05-24T02:07:36;12.50;53.90
18177;DHT22;9213;50.858;3.964;2023-05-24T02:10:04;12.50;54.00
18177;DHT22;9213;50.858;3.964;2023-05-24T02:12:31;12.50;54.10
18177;DHT22;9213;50.858;3.964;2023-05-24T02:14:58;12.50;54.20
18177;DHT22;9213;50.858;3.964;2023-05-24T02:17:26;12.50;54.90
18177;DHT22;9213;50.858;3.964;2023-05-24T02:19:53;12.50;54.30
18177;DHT22;9213;50.858;3.964;2023-05-24T02:22:20;12.40;54.20
18177;DHT22;9213;50.858;3.964;2023-05-24T02:24:47;12.40;54.20
18177;DHT22;9213;50.858;3.964;2023-05-24T02:27:14;12.40;54.30
18177;DHT22;9213;50.858;3.964;2023-05-24T02:29:41;12.40;54.40
18177;DHT22;9213;50.858;3.964;2023-05-24T02:32:08;12.30;54.40
18177;DHT22;9213;50.858;3.964;2023-05-24T02:34:36;12.30;54.60
18177;DHT22;9213;50.858;3.964;2023-05-24T02:37:03;12.30;54.60
18177;DHT22;9213;50.858;3.964;2023-05-24T02:39:30;12.30;54.70
18177;DHT22;9213;50.858;3.964;2023-05-24T02:41:58;12.30;54.70
18177;DHT22;9213;50.858;3.964;2023-05-24T02:44:25;12.30;54.70
18177;DHT22;9213;50.858;3.964;2023-05-24T02:46:51;12.20;54.70
18177;DHT22;9213;50.858;3.964;2023-05-24T02:49:18;12.20;54.70
18177;DHT22;9213;50.858;3.964;2023-05-24T02:51:47;12.20;54.70
18177;DHT22;9213;50.858;3.964;2023-05-24T02:54:14;12.20;54.80
18177;DHT22;9213;50.858;3.964;2023-05-24T02:56:42;12.20;54.80
18177;DHT22;9213;50.858;3.964;2023-05-24T02:59:09;12.20;54.80
18177;DHT22;9213;50.858;3.964;2023-05-24T03:01:35;12.10;54.90
18177;DHT22;9213;50.858;3.964;2023-05-24T03:04:02;12.10;55.00
18177;DHT22;9213;50.858;3.964;2023-05-24T03:06:29;12.10;55.10
18177;DHT22;9213;50.858;3.964;2023-05-24T03:08:58;12.10;55.10
18177;DHT22;9213;50.858;3.964;2023-05-24T03:11:25;12.10;55.20
18177;DHT22;9213;50.858;3.964;2023-05-24T03:13:52;12.10;55.10
18177;DHT22;9213;50.858;3.964;2023-05-24T03:16:19;12.00;55.10
18177;DHT22;9213;50.858;3.964;2023-05-24T03:18:46;12.00;55.10
18177;DHT22;9213;50.858;3.964;2023-05-24T03:21:15;12.00;55.00
18177;DHT22;9213;50.858;3.964;2023-05-24T03:23:42;12.00;55.10
18177;DHT22;9213;50.858;3.964;2023-05-24T03:26:10;11.90;55.20
18177;DHT22;9213;50.858;3.964;2023-05-24T03:28:37;11.90;55.30
18177;DHT22;9213;50.858;3.964;2023-05-24T03:31:05;11.90;55.50
18177;DHT22;9213;50.858;3.964;2023-05-24T03:33:32;11.80;55.50
18177;DHT22;9213;50.858;3.964;2023-05-24T03:35:59;11.90;55.60
18177;DHT22;9213;50.858;3.964;2023-05-24T03:38:27;11.90;55.60
18177;DHT22;9213;50.858;3.964;2023-05-24T03:40:54;11.80;55.60
18177;DHT22;9213;50.858;3.964;2023-05-24T03:43:22;11.80;55.60
18177;DHT22;9213;50.858;3.964;2023-05-24T03:45:49;11.90;55.70
18177;DHT22;9213;50.858;3.964;2023-05-24T03:48:16;11.80;55.60
18177;DHT22;9213;50.858;3.964;2023-05-24T03:50:45;11.80;55.50
18177;DHT22;9213;50.858;3.964;2023-05-24T03:53:12;11.80;55.50
18177;DHT22;9213;50.858;3.964;2023-05-24T03:55:39;11.80;55.70
18177;DHT22;9213;50.858;3.964;2023-05-24T03:58:06;11.80;55.70
18177;DHT22;9213;50.858;3.964;2023-05-24T04:00:34;11.80;55.80
18177;DHT22;9213;50.858;3.964;2023-05-24T04:03:01;11.90;56.00
18177;DHT22;9213;50.858;3.964;2023-05-24T04:05:31;11.90;55.90
18177;DHT22;9213;50.858;3.964;2023-05-24T04:07:58;11.90;55.80
18177;DHT22;9213;50.858;3.964;2023-05-24T04:10:25;11.90;55.90
18177;DHT22;9213;50.858;3.964;2023-05-24T04:12:51;11.90;55.90
18177;DHT22;9213;50.858;3.964;2023-05-24T04:15:18;12.00;55.80
18177;DHT22;9213;50.858;3.964;2023-05-24T04:17:47;12.00;55.80
18177;DHT22;9213;50.858;3.964;2023-05-24T04:20:19;12.00;55.80
18177;DHT22;9213;50.858;3.964;2023-05-24T04:22:47;12.10;55.90
18177;DHT22;9213;50.858;3.964;2023-05-24T04:25:14;12.10;55.80
18177;DHT22;9213;50.858;3.964;2023-05-24T04:27:41;12.10;55.70
18177;DHT22;9213;50.858;3.964;2023-05-24T04:30:10;12.10;55.60
18177;DHT22;9213;50.858;3.964;2023-05-24T04:32:37;12.20;55.60
18177;DHT22;9213;50.858;3.964;2023-05-24T04:35:07;12.20;55.60
18177;DHT22;9213;50.858;3.964;2023-05-24T04:37:34;12.20;55.60
18177;DHT22;9213;50.858;3.964;2023-05-24T04:40:01;12.20;55.50
18177;DHT22;9213;50.858;3.964;2023-05-24T04:42:30;12.20;55.60
18177;DHT22;9213;50.858;3.964;2023-05-24T04:44:57;12.20;55.60
18177;DHT22;9213;50.858;3.964;2023-05-24T04:47:24;12.30;55.60
18177;DHT22;9213;50.858;3.964;2023-05-24T04:49:51;12.30;55.60
18177;DHT22;9213;50.858;3.964;2023-05-24T04:52:20;12.30;55.70
18177;DHT22;9213;50.858;3.964;2023-05-24T04:54:47;12.30;55.80
18177;DHT22;9213;50.858;3.964;2023-05-24T04:57:15;12.40;55.80
18177;DHT22;9213;50.858;3.964;2023-05-24T04:59:42;12.40;55.80
18177;DHT22;9213;50.858;3.964;2023-05-24T05:02:09;12.50;56.00
18177;DHT22;9213;50.858;3.964;2023-05-24T05:04:36;12.50;56.00
18177;DHT22;9213;50.858;3.964;2023-05-24T05:07:03;12.60;55.90
18177;DHT22;9213;50.858;3.964;2023-05-24T05:09:32;12.60;55.90
18177;DHT22;9213;50.858;3.964;2023-05-24T05:11:58;12.70;56.00
18177;DHT22;9213;50.858;3.964;2023-05-24T05:14:25;12.80;55.90
18177;DHT22;9213;50.858;3.964;2023-05-24T05:16:52;12.80;56.00
18177;DHT22;9213;50.858;3.964;2023-05-24T05:19:19;12.90;56.00
18177;DHT22;9213;50.858;3.964;2023-05-24T05:21:46;13.00;55.80
18177;DHT22;9213;50.858;3.964;2023-05-24T05:24:14;13.10;55.80
18177;DHT22;9213;50.858;3.964;2023-05-24T05:26:42;13.20;55.80
18177;DHT22;9213;50.858;3.964;2023-05-24T05:29:09;13.40;56.00
18177;DHT22;9213;50.858;3.964;2023-05-24T05:31:36;13.60;55.50
18177;DHT22;9213;50.858;3.964;2023-05-24T05:34:04;13.70;55.00
18177;DHT22;9213;50.858;3.964;2023-05-24T05:36:34;13.80;54.60
18177;DHT22;9213;50.858;3.964;2023-05-24T05:39:05;13.80;54.40
18177;DHT22;9213;50.858;3.964;2023-05-24T05:41:37;13.90;54.50
18177;DHT22;9213;50.858;3.964;2023-05-24T05:44:06;13.90;54.50
18177;DHT22;9213;50.858;3.964;2023-05-24T05:46:32;13.90;54.40
18177;DHT22;9213;50.858;3.964;2023-05-24T05:48:59;13.90;54.40
18177;DHT22;9213;50.858;3.964;2023-05-24T05:51:26;14.00;54.50
18177;DHT22;9213;50.858;3.964;2023-05-24T05:53:53;14.00;54.60
18177;DHT22;9213;50.858;3.964;2023-05-24T05:56:20;14.10;54.80
18177;DHT22;9213;50.858;3.964;2023-05-24T05:58:47;14.10;54.70
18177;DHT22;9213;50.858;3.964;2023-05-24T06:01:15;14.20;54.60
18177;DHT22;9213;50.858;3.964;2023-05-24T06:03:42;14.30;54.70
18177;DHT22;9213;50.858;3.964;2023-05-24T06:06:09;14.30;54.60
18177;DHT22;9213;50.858;3.964;2023-05-24T06:08:36;14.50;54.50
18177;DHT22;9213;50.858;3.964;2023-05-24T06:11:05;14.60;54.10
18177;DHT22;9213;50.858;3.964;2023-05-24T06:13:32;14.70;54.00
18177;DHT22;9213;50.858;3.964;2023-05-24T06:15:59;14.70;53.70
18177;DHT22;9213;50.858;3.964;2023-05-24T06:18:28;14.90;53.50
18177;DHT22;9213;50.858;3.964;2023-05-24T06:20:55;15.00;53.20
18177;DHT22;9213;50.858;3.964;2023-05-24T06:23:22;15.10;53.00
18177;DHT22;9213;50.858;3.964;2023-05-24T06:25:49;15.20;52.80
18177;DHT22;9213;50.858;3.964;2023-05-24T06:28:15;15.40;52.60
18177;DHT22;9213;50.858;3.964;2023-05-24T06:30:42;15.70;52.40
18177;DHT22;9213;50.858;3.964;2023-05-24T06:33:09;16.00;51.80
18177;DHT22;9213;50.858;3.964;2023-05-24T06:35:37;16.40;50.70
18177;DHT22;9213;50.858;3.964;2023-05-24T06:38:04;16.60;49.70
18177;DHT22;9213;50.858;3.964;2023-05-24T06:40:31;16.90;49.80
18177;DHT22;9213;50.858;3.964;2023-05-24T06:42:58;17.60;49.10
18177;DHT22;9213;50.858;3.964;2023-05-24T06:45:25;18.40;47.70
18177;DHT22;9213;50.858;3.964;2023-05-24T06:47:52;19.20;45.60
18177;DHT22;9213;50.858;3.964;2023-05-24T06:50:19;19.90;44.00
18177;DHT22;9213;50.858;3.964;2023-05-24T06:52:48;20.50;41.80
18177;DHT22;9213;50.858;3.964;2023-05-24T06:55:15;20.80;40.80
18177;DHT22;9213;50.858;3.964;2023-05-24T06:57:42;21.00;40.20
18177;DHT22;9213;50.858;3.964;2023-05-24T07:00:10;21.00;39.50
18177;DHT22;9213;50.858;3.964;2023-05-24T07:02:38;21.00;38.90
18177;DHT22;9213;50.858;3.964;2023-05-24T07:05:06;20.90;38.90
18177;DHT22;9213;50.858;3.964;2023-05-24T07:07:36;20.90;39.10
18177;DHT22;9213;50.858;3.964;2023-05-24T07:10:07;20.90;39.40
18177;DHT22;9213;50.858;3.964;2023-05-24T07:12:35;21.30;38.90
18177;DHT22;9213;50.858;3.964;2023-05-24T07:15:02;21.30;37.90
18177;DHT22;9213;50.858;3.964;2023-05-24T07:17:29;21.30;37.80
18177;DHT22;9213;50.858;3.964;2023-05-24T07:19:56;21.20;37.70
18177;DHT22;9213;50.858;3.964;2023-05-24T07:22:23;21.00;37.70
18177;DHT22;9213;50.858;3.964;2023-05-24T07:24:53;21.00;38.20
18177;DHT22;9213;50.858;3.964;2023-05-24T07:27:21;21.40;38.70
18177;DHT22;9213;50.858;3.964;2023-05-24T07:29:48;22.30;37.60
18177;DHT22;9213;50.858;3.964;2023-05-24T07:32:15;23.20;36.10
18177;DHT22;9213;50.858;3.964;2023-05-24T07:34:42;24.10;34.20
18177;DHT22;9213;50.858;3.964;2023-05-24T07:37:09;25.10;32.50
18177;DHT22;9213;50.858;3.964;2023-05-24T07:39:36;25.90;30.20
18177;DHT22;9213;50.858;3.964;2023-05-24T07:42:04;26.60;28.60
18177;DHT22;9213;50.858;3.964;2023-05-24T07:44:32;27.40;26.90
18177;DHT22;9213;50.858;3.964;2023-05-24T07:47:00;28.10;26.60
18177;DHT22;9213;50.858;3.964;2023-05-24T07:49:27;28.70;25.60
18177;DHT22;9213;50.858;3.964;2023-05-24T07:51:54;29.10;24.90
18177;DHT22;9213;50.858;3.964;2023-05-24T07:54:24;29.60;23.60
18177;DHT22;9213;50.858;3.964;2023-05-24T07:56:51;30.10;22.40
18177;DHT22;9213;50.858;3.964;2023-05-24T07:59:18;30.40;21.70
18177;DHT22;9213;50.858;3.964;2023-05-24T08:01:46;30.30;21.50
18177;DHT22;9213;50.858;3.964;2023-05-24T08:04:13;29.90;21.90
18177;DHT22;9213;50.858;3.964;2023-05-24T08:06:40;29.60;21.60
18177;DHT22;9213;50.858;3.964;2023-05-24T08:09:07;29.40;21.70
18177;DHT22;9213;50.858;3.964;2023-05-24T08:11:34;29.40;21.90
18177;DHT22;9213;50.858;3.964;2023-05-24T08:14:01;29.00;21.30
18177;DHT22;9213;50.858;3.964;2023-05-24T08:16:28;28.30;22.30
18177;DHT22;9213;50.858;3.964;2023-05-24T08:18:56;27.30;23.20
18177;DHT22;9213;50.858;3.964;2023-05-24T08:21:23;26.40;24.40
18177;DHT22;9213;50.858;3.964;2023-05-24T08:23:50;25.40;26.00
18177;DHT22;9213;50.858;3.964;2023-05-24T08:26:17;24.50;28.30
18177;DHT22;9213;50.858;3.964;2023-05-24T08:28:45;23.80;29.00
18177;DHT22;9213;50.858;3.964;2023-05-24T08:31:12;23.20;29.80
18177;DHT22;9213;50.858;3.964;2023-05-24T08:33:39;22.80;30.40
18177;DHT22;9213;50.858;3.964;2023-05-24T08:36:09;22.50;31.30
18177;DHT22;9213;50.858;3.964;2023-05-24T08:38:36;22.30;31.50
18177;DHT22;9213;50.858;3.964;2023-05-24T08:41:04;22.20;31.50
18177;DHT22;9213;50.858;3.964;2023-05-24T08:43:33;22.10;31.80
18177;DHT22;9213;50.858;3.964;2023-05-24T08:46:01;22.10;32.00
18177;DHT22;9213;50.858;3.964;2023-05-24T08:48:29;22.20;32.20
18177;DHT22;9213;50.858;3.964;2023-05-24T08:50:57;22.30;32.30
18177;DHT22;9213;50.858;3.964;2023-05-24T08:53:25;22.50;32.10
18177;DHT22;9213;50.858;3.964;2023-05-24T08:55:53;22.90;31.90
18177;DHT22;9213;50.858;3.964;2023-05-24T08:58:20;23.20;31.10
18177;DHT22;9213;50.858;3.964;2023-05-24T09:00:47;23.30;29.70
18177;DHT22;9213;50.858;3.964;2023-05-24T09:03:16;23.40;29.40
18177;DHT22;9213;50.858;3.964;2023-05-24T09:05:44;23.60;29.50
18177;DHT22;9213;50.858;3.964;2023-05-24T09:08:11;23.80;29.10
18177;DHT22;9213;50.858;3.964;2023-05-24T09:10:44;24.10;29.00
18177;DHT22;9213;50.858;3.964;2023-05-24T09:13:11;24.60;29.80
18177;DHT22;9213;50.858;3.964;2023-05-24T09:15:41;25.30;28.20
18177;DHT22;9213;50.858;3.964;2023-05-24T09:18:09;25.80;26.80
18177;DHT22;9213;50.858;3.964;2023-05-24T09:20:36;26.10;26.40
18177;DHT22;9213;50.858;3.964;2023-05-24T09:23:03;26.20;26.70
18177;DHT22;9213;50.858;3.964;2023-05-24T09:25:32;26.20;26.50
18177;DHT22;9213;50.858;3.964;2023-05-24T09:28:05;26.10;26.30
18177;DHT22;9213;50.858;3.964;2023-05-24T09:30:33;26.00;26.40
18177;DHT22;9213;50.858;3.964;2023-05-24T09:33:00;25.90;25.80
18177;DHT22;9213;50.858;3.964;2023-05-24T09:35:29;25.80;25.80
18177;DHT22;9213;50.858;3.964;2023-05-24T09:37:57;25.80;26.20
18177;DHT22;9213;50.858;3.964;2023-05-24T09:40:26;25.80;26.00
18177;DHT22;9213;50.858;3.964;2023-05-24T09:43:04;25.70;26.40
18177;DHT22;9213;50.858;3.964;2023-05-24T09:45:37;25.70;27.00
18177;DHT22;9213;50.858;3.964;2023-05-24T09:48:09;25.50;26.50
18177;DHT22;9213;50.858;3.964;2023-05-24T09:50:36;25.40;26.60
18177;DHT22;9213;50.858;3.964;2023-05-24T09:53:03;25.20;26.60
18177;DHT22;9213;50.858;3.964;2023-05-24T09:55:35;25.10;27.10
18177;DHT22;9213;50.858;3.964;2023-05-24T09:58:05;24.90;27.40
18177;DHT22;9213;50.858;3.964;2023-05-24T10:00:34;24.90;27.80
18177;DHT22;9213;50.858;3.964;2023-05-24T10:03:02;24.80;28.10
18177;DHT22;9213;50.858;3.964;2023-05-24T10:05:29;24.80;27.70
18177;DHT22;9213;50.858;3.964;2023-05-24T10:07:57;24.70;28.40
18177;DHT22;9213;50.858;3.964;2023-05-24T10:10:26;24.70;28.90
18177;DHT22;9213;50.858;3.964;2023-05-24T10:12:55;24.80;28.50
18177;DHT22;9213;50.858;3.964;2023-05-24T10:15:23;24.90;28.20
18177;DHT22;9213;50.858;3.964;2023-05-24T10:17:50;25.00;28.20
18177;DHT22;9213;50.858;3.964;2023-05-24T10:20:17;25.10;27.90
18177;DHT22;9213;50.858;3.964;2023-05-24T10:22:46;25.10;27.70
18177;DHT22;9213;50.858;3.964;2023-05-24T10:25:19;25.30;28.00
18177;DHT22;9213;50.858;3.964;2023-05-24T10:27:48;25.40;27.40
18177;DHT22;9213;50.858;3.964;2023-05-24T10:30:23;25.60;27.00
18177;DHT22;9213;50.858;3.964;2023-05-24T10:32:53;25.90;27.00
18177;DHT22;9213;50.858;3.964;2023-05-24T10:35:21;26.10;26.60
18177;DHT22;9213;50.858;3.964;2023-05-24T10:37:49;26.10;26.90
18177;DHT22;9213;50.858;3.964;2023-05-24T10:40:17;26.20;26.50
18177;DHT22;9213;50.858;3.964;2023-05-24T10:42:45;26.10;25.80
18177;DHT22;9213;50.858;3.964;2023-05-24T10:45:33;26.00;25.90
18177;DHT22;9213;50.858;3.964;2023-05-24T10:48:08;26.00;26.10
18177;DHT22;9213;50.858;3.964;2023-05-24T10:50:35;25.80;25.50
18177;DHT22;9213;50.858;3.964;2023-05-24T10:53:12;25.70;26.60
18177;DHT22;9213;50.858;3.964;2023-05-24T10:55:53;25.90;27.10
18177;DHT22;9213;50.858;3.964;2023-05-24T10:58:22;26.30;27.60
18177;DHT22;9213;50.858;3.964;2023-05-24T11:00:54;26.50;25.90
18177;DHT22;9213;50.858;3.964;2023-05-24T11:03:22;26.50;25.60
18177;DHT22;9213;50.858;3.964;2023-05-24T11:05:51;26.50;25.70
18177;DHT22;9213;50.858;3.964;2023-05-24T11:08:23;26.60;26.00
18177;DHT22;9213;50.858;3.964;2023-05-24T11:11:01;26.70;25.80
18177;DHT22;9213;50.858;3.964;2023-05-24T11:13:30;26.80;25.90
18177;DHT22;9213;50.858;3.964;2023-05-24T11:15:58;26.80;25.80
18177;DHT22;9213;50.858;3.964;2023-05-24T11:18:26;26.90;24.50
18177;DHT22;9213;50.858;3.964;2023-05-24T11:20:53;27.00;24.60
18177;DHT22;9213;50.858;3.964;2023-05-24T11:23:21;27.20;24.80
18177;DHT22;9213;50.858;3.964;2023-05-24T11:25:48;27.30;23.40
18177;DHT22;9213;50.858;3.964;2023-05-24T11:28:15;27.30;23.40
18177;DHT22;9213;50.858;3.964;2023-05-24T11:30:43;27.20;23.20
18177;DHT22;9213;50.858;3.964;2023-05-24T11:33:15;27.20;22.80
18177;DHT22;9213;50.858;3.964;2023-05-24T11:35:43;27.30;23.50
18177;DHT22;9213;50.858;3.964;2023-05-24T11:38:10;27.40;24.40
18177;DHT22;9213;50.858;3.964;2023-05-24T11:40:39;27.60;22.90
18177;DHT22;9213;50.858;3.964;2023-05-24T11:43:10;27.60;23.30
18177;DHT22;9213;50.858;3.964;2023-05-24T11:45:38;27.60;22.90
18177;DHT22;9213;50.858;3.964;2023-05-24T11:48:07;27.50;22.60
18177;DHT22;9213;50.858;3.964;2023-05-24T11:50:38;27.30;22.90
18177;DHT22;9213;50.858;3.964;2023-05-24T11:53:08;27.20;23.70
18177;DHT22;9213;50.858;3.964;2023-05-24T11:55:36;27.20;24.00
18177;DHT22;9213;50.858;3.964;2023-05-24T11:58:06;27.20;23.30
18177;DHT22;9213;50.858;3.964;2023-05-24T12:00:36;27.20;23.00
18177;DHT22;9213;50.858;3.964;2023-05-24T12:03:03;27.00;23.10
18177;DHT22;9213;50.858;3.964;2023-05-24T12:05:33;26.90;23.40
18177;DHT22;9213;50.858;3.964;2023-05-24T12:08:04;26.80;24.10
18177;DHT22;9213;50.858;3.964;2023-05-24T12:10:32;26.80;23.90
18177;DHT22;9213;50.858;3.964;2023-05-24T12:13:00;26.90;24.10
18177;DHT22;9213;50.858;3.964;2023-05-24T12:15:27;27.00;24.40
18177;DHT22;9213;50.858;3.964;2023-05-24T12:17:54;27.10;24.30
18177;DHT22;9213;50.858;3.964;2023-05-24T12:20:21;27.20;24.30
18177;DHT22;9213;50.858;3.964;2023-05-24T12:22:48;27.40;24.00
18177;DHT22;9213;50.858;3.964;2023-05-24T12:25:18;27.50;23.60
18177;DHT22;9213;50.858;3.964;2023-05-24T12:27:46;27.60;23.80
18177;DHT22;9213;50.858;3.964;2023-05-24T12:30:14;27.80;23.10
18177;DHT22;9213;50.858;3.964;2023-05-24T12:32:46;27.90;23.10
18177;DHT22;9213;50.858;3.964;2023-05-24T12:35:13;27.90;22.50
18177;DHT22;9213;50.858;3.964;2023-05-24T12:37:43;27.80;22.90
18177;DHT22;9213;50.858;3.964;2023-05-24T12:40:18;27.80;22.80
18177;DHT22;9213;50.858;3.964;2023-05-24T12:42:51;27.80;23.60
18177;DHT22;9213;50.858;3.964;2023-05-24T12:45:19;28.00;23.50
18177;DHT22;9213;50.858;3.964;2023-05-24T12:47:50;28.00;23.20
18177;DHT22;9213;50.858;3.964;2023-05-24T12:50:18;28.20;23.70
18177;DHT22;9213;50.858;3.964;2023-05-24T12:52:46;28.30;23.10
18177;DHT22;9213;50.858;3.964;2023-05-24T12:55:13;28.40;22.70
18177;DHT22;9213;50.858;3.964;2023-05-24T12:57:42;28.30;22.40
18177;DHT22;9213;50.858;3.964;2023-05-24T13:00:12;28.20;23.10
18177;DHT22;9213;50.858;3.964;2023-05-24T13:02:39;28.20;23.30
18177;DHT22;9213;50.858;3.964;2023-05-24T13:05:07;28.10;23.40
18177;DHT22;9213;50.858;3.964;2023-05-24T13:07:35;28.10;23.60
18177;DHT22;9213;50.858;3.964;2023-05-24T13:10:02;28.10;23.50
18177;DHT22;9213;50.858;3.964;2023-05-24T13:12:29;28.10;23.90
18177;DHT22;9213;50.858;3.964;2023-05-24T13:14:57;28.20;22.80
18177;DHT22;9213;50.858;3.964;2023-05-24T13:17:24;28.30;23.10
18177;DHT22;9213;50.858;3.964;2023-05-24T13:19:51;28.40;22.70
18177;DHT22;9213;50.858;3.964;2023-05-24T13:22:19;28.50;22.70
18177;DHT22;9213;50.858;3.964;2023-05-24T13:24:46;28.50;22.80
18177;DHT22;9213;50.858;3.964;2023-05-24T13:27:13;28.50;22.50
18177;DHT22;9213;50.858;3.964;2023-05-24T13:29:40;28.50;22.90
18177;DHT22;9213;50.858;3.964;2023-05-24T13:32:08;28.50;22.30
18177;DHT22;9213;50.858;3.964;2023-05-24T13:34:35;28.40;22.70
18177;DHT22;9213;50.858;3.964;2023-05-24T13:37:02;28.30;23.10
18177;DHT22;9213;50.858;3.964;2023-05-24T13:39:29;28.10;23.00
18177;DHT22;9213;50.858;3.964;2023-05-24T13:41:56;28.00;23.30
18177;DHT22;9213;50.858;3.964;2023-05-24T13:44:25;27.80;22.90
18177;DHT22;9213;50.858;3.964;2023-05-24T13:46:52;27.70;23.50
18177;DHT22;9213;50.858;3.964;2023-05-24T13:49:22;27.50;23.30
18177;DHT22;9213;50.858;3.964;2023-05-24T13:51:49;27.40;23.50
18177;DHT22;9213;50.858;3.964;2023-05-24T13:54:16;27.30;24.50
18177;DHT22;9213;50.858;3.964;2023-05-24T13:56:43;27.40;24.40
18177;DHT22;9213;50.858;3.964;2023-05-24T13:59:10;27.50;24.20
18177;DHT22;9213;50.858;3.964;2023-05-24T14:01:37;27.50;24.00
18177;DHT22;9213;50.858;3.964;2023-05-24T14:04:05;27.50;24.00
18177;DHT22;9213;50.858;3.964;2023-05-24T14:06:34;27.50;23.70
18177;DHT22;9213;50.858;3.964;2023-05-24T14:09:02;27.50;24.10
18177;DHT22;9213;50.858;3.964;2023-05-24T14:11:31;27.40;23.30
18177;DHT22;9213;50.858;3.964;2023-05-24T14:13:58;27.20;23.90
18177;DHT22;9213;50.858;3.964;2023-05-24T14:16:26;27.00;24.10
18177;DHT22;9213;50.858;3.964;2023-05-24T14:18:53;26.90;23.90
18177;DHT22;9213;50.858;3.964;2023-05-24T14:21:20;26.90;24.20
18177;DHT22;9213;50.858;3.964;2023-05-24T14:23:49;26.90;24.00
18177;DHT22;9213;50.858;3.964;2023-05-24T14:26:17;26.80;23.90
18177;DHT22;9213;50.858;3.964;2023-05-24T14:28:44;26.80;24.20
18177;DHT22;9213;50.858;3.964;2023-05-24T14:31:11;26.90;24.20
18177;DHT22;9213;50.858;3.964;2023-05-24T14:33:38;27.00;24.40
18177;DHT22;9213;50.858;3.964;2023-05-24T14:36:06;27.10;23.90
18177;DHT22;9213;50.858;3.964;2023-05-24T14:38:34;27.20;23.70
18177;DHT22;9213;50.858;3.964;2023-05-24T14:41:02;27.30;24.00
18177;DHT22;9213;50.858;3.964;2023-05-24T14:43:30;27.30;23.30
18177;DHT22;9213;50.858;3.964;2023-05-24T14:45:57;27.20;23.40
18177;DHT22;9213;50.858;3.964;2023-05-24T14:48:24;27.20;23.30
18177;DHT22;9213;50.858;3.964;2023-05-24T14:50:52;27.10;23.40
18177;DHT22;9213;50.858;3.964;2023-05-24T14:53:19;27.00;23.40
18177;DHT22;9213;50.858;3.964;2023-05-24T14:55:49;26.90;23.00
18177;DHT22;9213;50.858;3.964;2023-05-24T14:58:19;26.80;22.70
18177;DHT22;9213;50.858;3.964;2023-05-24T15:00:46;26.60;22.70
18177;DHT22;9213;50.858;3.964;2023-05-24T15:03:13;26.50;23.00
18177;DHT22;9213;50.858;3.964;2023-05-24T15:05:40;26.40;23.70
18177;DHT22;9213;50.858;3.964;2023-05-24T15:08:08;26.30;24.00
18177;DHT22;9213;50.858;3.964;2023-05-24T15:10:35;26.30;24.40
18177;DHT22;9213;50.858;3.964;2023-05-24T15:13:03;26.20;24.60
18177;DHT22;9213;50.858;3.964;2023-05-24T15:15:31;26.20;24.40
18177;DHT22;9213;50.858;3.964;2023-05-24T15:17:58;26.20;24.50
18177;DHT22;9213;50.858;3.964;2023-05-24T15:20:25;26.20;25.00
18177;DHT22;9213;50.858;3.964;2023-05-24T15:22:52;26.20;25.00
18177;DHT22;9213;50.858;3.964;2023-05-24T15:25:19;26.10;25.80
18177;DHT22;9213;50.858;3.964;2023-05-24T15:27:46;26.20;25.40
18177;DHT22;9213;50.858;3.964;2023-05-24T15:30:13;26.20;25.60
18177;DHT22;9213;50.858;3.964;2023-05-24T15:32:43;26.20;24.90
18177;DHT22;9213;50.858;3.964;2023-05-24T15:35:11;26.10;25.30
18177;DHT22;9213;50.858;3.964;2023-05-24T15:37:37;26.00;25.70
18177;DHT22;9213;50.858;3.964;2023-05-24T15:40:07;26.00;24.90
18177;DHT22;9213;50.858;3.964;2023-05-24T15:42:35;25.90;24.50
18177;DHT22;9213;50.858;3.964;2023-05-24T15:45:02;25.90;23.90
18177;DHT22;9213;50.858;3.964;2023-05-24T15:47:29;25.70;24.20
18177;DHT22;9213;50.858;3.964;2023-05-24T15:50:02;25.60;24.50
18177;DHT22;9213;50.858;3.964;2023-05-24T15:52:29;25.50;24.70